Observation data for Denver City on 03/05/2021      Previous  Date  Next       Current Mesonet Observations  Soil Data  Daily Summary Page  Observations in Plain Language
KDVS 050600Z 29011KT 08/M05 A3001 RMK A01 T00771053  RH  040%=      5-min Rain = 0
KDVS 050605Z 30011KT 08/M05 A3001 RMK A01 T00761052  RH  040%=      5-min Rain = 0
KDVS 050610Z 29011KT 07/M05 A3001 RMK A01 T00741052  RH  040%=      5-min Rain = 0
KDVS 050615Z 29012KT 07/M05 A3001 RMK A01 T00741051  RH  041%=      5-min Rain = 0
KDVS 050620Z 29012KT 08/M05 A3001 RMK A01 T00751051  RH  040%=      5-min Rain = 0
KDVS 050625Z 29011KT 08/M05 A3001 RMK A01 T00751052  RH  040%=      5-min Rain = 0
KDVS 050630Z 29012KT 08/M05 A3001 RMK A01 T00761051  RH  040%=      5-min Rain = 0
KDVS 050635Z 30012KT 08/M05 A3001 RMK A01 T00771051  RH  040%=      5-min Rain = 0
KDVS 050640Z 30014KT 08/M05 A3001 RMK A01 T00801050  RH  040%=      5-min Rain = 0
KDVS 050645Z 31014KT 09/M05 A3001 RMK A01 T00871049  RH  038%=      5-min Rain = 0
KDVS 050650Z 30015KT 09/M05 A3001 RMK A01 T00941049  RH  036%=      5-min Rain = 0
KDVS 050655Z 30014KT 09/M05 A3002 RMK A01 T00941050  RH  036%=      5-min Rain = 0
KDVS 050700Z 30014KT 09/M05 A3002 RMK A01 T00921049  RH  036%=      5-min Rain = 0
KDVS 050705Z 30014KT 09/M05 A3002 RMK A01 T00901049  RH  037%=      5-min Rain = 0
KDVS 050710Z 30014KT 09/M05 A3002 RMK A01 T00891048  RH  038%=      5-min Rain = 0
KDVS 050715Z 30014KT 09/M05 A3002 RMK A01 T00871048  RH  038%=      5-min Rain = 0
KDVS 050720Z 29013KT 09/M05 A3002 RMK A01 T00851048  RH  039%=      5-min Rain = 0
KDVS 050725Z 30013KT 08/M05 A3002 RMK A01 T00841047  RH  039%=      5-min Rain = 0
KDVS 050730Z 30014KT 08/M05 A3002 RMK A01 T00831048  RH  039%=      5-min Rain = 0
KDVS 050735Z 30015KT 09/M05 A3002 RMK A01 T00851047  RH  039%=      5-min Rain = 0
KDVS 050740Z 30016KT 09/M05 A3002 RMK A01 T00891047  RH  038%=      5-min Rain = 0
KDVS 050745Z 30016KT 09/M05 A3002 RMK A01 T00911047  RH  038%=      5-min Rain = 0
KDVS 050750Z 30016KT 09/M05 A3002 RMK A01 T00901047  RH  038%=      5-min Rain = 0
KDVS 050755Z 30016KT 09/M05 A3002 RMK A01 T00891047  RH  038%=      5-min Rain = 0
KDVS 050800Z 30017KT 09/M05 A3002 RMK A01 T00901048  RH  037%=      5-min Rain = 0
KDVS 050805Z 30015KT 09/M05 A3003 RMK A01 T00891049  RH  038%=      5-min Rain = 0
KDVS 050810Z 30016KT 09/M05 A3003 RMK A01 T00851049  RH  039%=      5-min Rain = 0
KDVS 050815Z 30016KT 09/M05 A3003 RMK A01 T00851049  RH  039%=      5-min Rain = 0
KDVS 050820Z 30015KT 08/M05 A3003 RMK A01 T00831049  RH  039%=      5-min Rain = 0
KDVS 050825Z 30014KT 08/M05 A3003 RMK A01 T00811049  RH  040%=      5-min Rain = 0
KDVS 050830Z 29014KT 08/M05 A3003 RMK A01 T00811049  RH  039%=      5-min Rain = 0
KDVS 050835Z 29015KT 08/M05 A3003 RMK A01 T00801049  RH  040%=      5-min Rain = 0
KDVS 050840Z 29015KT 08/M05 A3003 RMK A01 T00801049  RH  040%=      5-min Rain = 0
KDVS 050845Z 29016KT 08/M05 A3003 RMK A01 T00771049  RH  040%=      5-min Rain = 0
KDVS 050850Z 29015KT 07/M05 A3003 RMK A01 T00741050  RH  041%=      5-min Rain = 0
KDVS 050855Z 29014KT 07/M05 A3003 RMK A01 T00721049  RH  042%=      5-min Rain = 0
KDVS 050900Z 30015KT 07/M05 A3003 RMK A01 T00741049  RH  041%=      5-min Rain = 0
KDVS 050905Z 30015KT 08/M05 A3003 RMK A01 T00761049  RH  041%=      5-min Rain = 0
KDVS 050910Z 30016KT 08/M05 A3003 RMK A01 T00771048  RH  041%=      5-min Rain = 0
KDVS 050915Z 30015KT 08/M05 A3003 RMK A01 T00761048  RH  041%=      5-min Rain = 0
KDVS 050920Z 30015KT 07/M05 A3003 RMK A01 T00731048  RH  042%=      5-min Rain = 0
KDVS 050925Z 29015KT 07/M05 A3003 RMK A01 T00731049  RH  042%=      5-min Rain = 0
KDVS 050930Z 29015KT 07/M05 A3003 RMK A01 T00721049  RH  042%=      5-min Rain = 0
KDVS 050935Z 29015KT 07/M05 A3003 RMK A01 T00701049  RH  043%=      5-min Rain = 0
KDVS 050940Z 29015KT 07/M05 A3003 RMK A01 T00681048  RH  043%=      5-min Rain = 0
KDVS 050945Z 29014KT 07/M05 A3004 RMK A01 T00681048  RH  043%=      5-min Rain = 0
KDVS 050950Z 30014KT 07/M05 A3004 RMK A01 T00671048  RH  044%=      5-min Rain = 0
KDVS 050955Z 30013KT 07/M05 A3005 RMK A01 T00651048  RH  044%=      5-min Rain = 0
KDVS 051000Z 30013KT 06/M05 A3005 RMK A01 T00631048  RH  045%=      5-min Rain = 0
KDVS 051005Z 30013KT 06/M05 A3005 RMK A01 T00611048  RH  046%=      5-min Rain = 0
KDVS 051010Z 30013KT 06/M05 A3005 RMK A01 T00611048  RH  046%=      5-min Rain = 0
KDVS 051015Z 30015KT 06/M05 A3005 RMK A01 T00641047  RH  045%=      5-min Rain = 0
KDVS 051020Z 31013KT 07/M05 A3005 RMK A01 T00651048  RH  044%=      5-min Rain = 0
KDVS 051025Z 31013KT 07/M05 A3005 RMK A01 T00651048  RH  044%=      5-min Rain = 0
KDVS 051030Z 31013KT 06/M05 A3005 RMK A01 T00641049  RH  044%=      5-min Rain = 0
KDVS 051035Z 31013KT 06/M05 A3006 RMK A01 T00631049  RH  045%=      5-min Rain = 0
KDVS 051040Z 30013KT 06/M05 A3006 RMK A01 T00621050  RH  045%=      5-min Rain = 0
KDVS 051045Z 30012KT 06/M05 A3006 RMK A01 T00591050  RH  046%=      5-min Rain = 0
KDVS 051050Z 30012KT 06/M05 A3006 RMK A01 T00571050  RH  046%=      5-min Rain = 0
KDVS 051055Z 30013KT 06/M05 A3006 RMK A01 T00551050  RH  047%=      5-min Rain = 0
KDVS 051100Z 31013KT 06/M05 A3006 RMK A01 T00561050  RH  046%=      5-min Rain = 0
KDVS 051105Z 31013KT 06/M05 A3007 RMK A01 T00561051  RH  046%=      5-min Rain = 0
KDVS 051110Z 31013KT 06/M05 A3007 RMK A01 T00561051  RH  046%=      5-min Rain = 0
KDVS 051115Z 31013KT 06/M05 A3007 RMK A01 T00561049  RH  047%=      5-min Rain = 0
KDVS 051120Z 31012KT 05/M05 A3007 RMK A01 T00541049  RH  047%=      5-min Rain = 0
KDVS 051125Z 31012KT 05/M05 A3007 RMK A01 T00531049  RH  048%=      5-min Rain = 0
KDVS 051130Z 31012KT 05/M05 A3007 RMK A01 T00521048  RH  049%=      5-min Rain = 0
KDVS 051135Z 31011KT 05/M05 A3007 RMK A01 T00511047  RH  049%=      5-min Rain = 0
KDVS 051140Z 31010KT 05/M05 A3007 RMK A01 T00501046  RH  050%=      5-min Rain = 0
KDVS 051145Z 31010KT 05/M05 A3007 RMK A01 T00511045  RH  050%=      5-min Rain = 0
KDVS 051150Z 31012KT 05/M04 A3007 RMK A01 T00521042  RH  051%=      5-min Rain = 0
KDVS 051155Z 31012KT 05/M04 A3008 RMK A01 T00521041  RH  051%=      5-min Rain = 0
KDVS 051200Z 31012KT 05/M04 A3008 RMK A01 T00521041  RH  051%=      5-min Rain = 0
KDVS 051205Z 31013KT 05/M04 A3007 RMK A01 T00541039  RH  051%=      5-min Rain = 0
KDVS 051210Z 31013KT 06/M04 A3008 RMK A01 T00571038  RH  051%=      5-min Rain = 0
KDVS 051215Z 32014KT 06/M04 A3008 RMK A01 T00581037  RH  051%=      5-min Rain = 0
KDVS 051220Z 32014KT 06/M04 A3008 RMK A01 T00581037  RH  051%=      5-min Rain = 0
KDVS 051225Z 32014KT 06/M04 A3008 RMK A01 T00601036  RH  051%=      5-min Rain = 0
KDVS 051230Z 32014KT 06/M03 A3009 RMK A01 T00621034  RH  050%=      5-min Rain = 0
KDVS 051235Z 32014KT 06/M03 A3009 RMK A01 T00641034  RH  050%=      5-min Rain = 0
KDVS 051240Z 31013KT 06/M03 A3009 RMK A01 T00621034  RH  051%=      5-min Rain = 0
KDVS 051245Z 32013KT 06/M03 A3009 RMK A01 T00621033  RH  051%=      5-min Rain = 0
KDVS 051250Z 32014KT 06/M03 A3009 RMK A01 T00631032  RH  051%=      5-min Rain = 0
KDVS 051255Z 32015G20KT 06/M03 A3009 RMK A01 T00631031  RH  051%=      5-min Rain = 0
KDVS 051300Z 32016G22KT 06/M03 A301 RMK A01 T00641030  RH  051%=      5-min Rain = 0
KDVS 051305Z 32017KT 07/M03 A301 RMK A01 T00651029  RH  051%=      5-min Rain = 0
KDVS 051310Z 33015G21KT 06/M03 A301 RMK A01 T00641029  RH  052%=      5-min Rain = 0
KDVS 051315Z 33016KT 06/M03 A3011 RMK A01 T00641029  RH  052%=      5-min Rain = 0
KDVS 051320Z 33016KT 07/M03 A3011 RMK A01 T00651028  RH  052%=      5-min Rain = 0
KDVS 051325Z 33017G22KT 07/M03 A3011 RMK A01 T00661027  RH  052%=      5-min Rain = 0
KDVS 051330Z 33017G23KT 07/M03 A3011 RMK A01 T00671025  RH  052%=      5-min Rain = 0
KDVS 051335Z 33018G24KT 07/M02 A3012 RMK A01 T00701022  RH  052%=      5-min Rain = 0
KDVS 051340Z 34017G23KT 07/M02 A3012 RMK A01 T00711020  RH  053%=      5-min Rain = 0
KDVS 051345Z 34017G23KT 07/M02 A3012 RMK A01 T00721018  RH  053%=      5-min Rain = 0
KDVS 051350Z 34017G23KT 07/M02 A3013 RMK A01 T00741016  RH  053%=      5-min Rain = 0
KDVS 051355Z 33016G21KT 08/M02 A3013 RMK A01 T00751015  RH  053%=      5-min Rain = 0
KDVS 051400Z 33015G20KT 08/M02 A3013 RMK A01 T00751015  RH  053%=      5-min Rain = 0
KDVS 051405Z 33016KT 08/M01 A3014 RMK A01 T00761014  RH  053%=      5-min Rain = 0
KDVS 051410Z 33017G24KT 08/M01 A3014 RMK A01 T00781012  RH  053%=      5-min Rain = 0
KDVS 051415Z 34020G27KT 08/M01 A3014 RMK A01 T00831009  RH  053%=      5-min Rain = 0
KDVS 051420Z 34020G25KT 09/M01 A3015 RMK A01 T00861007  RH  053%=      5-min Rain = 0
KDVS 051425Z 34019G25KT 09/M00 A3015 RMK A01 T00901003  RH  053%=      5-min Rain = 0
KDVS 051430Z 33020G26KT 09/M00 A3015 RMK A01 T00931002  RH  052%=      5-min Rain = 0
KDVS 051435Z 33020G25KT 09/M00 A3015 RMK A01 T00941003  RH  051%=      5-min Rain = 0
KDVS 051440Z 33021G29KT 09/M00 A3015 RMK A01 T00941003  RH  051%=      5-min Rain = 0
KDVS 051445Z 33019G27KT 10/M00 A3015 RMK A01 T00951003  RH  051%=      5-min Rain = 0
KDVS 051450Z 34020G27KT 10/M00 A3015 RMK A01 T00961001  RH  051%=      5-min Rain = 0
KDVS 051455Z 34020G27KT 10/00 A3015 RMK A01 T00970003  RH  052%=      5-min Rain = 0
KDVS 051500Z 34021G31KT 10/01 A3015 RMK A01 T01010010  RH  054%=      5-min Rain = 0
KDVS 051505Z 34020G28KT 10/01 A3016 RMK A01 T01030013  RH  054%=      5-min Rain = 0
KDVS 051510Z 34023G31KT 10/01 A3016 RMK A01 T01040014  RH  055%=      5-min Rain = 0
KDVS 051515Z 34023G29KT 10/01 A3017 RMK A01 T01030014  RH  055%=      5-min Rain = 0
KDVS 051520Z 34024G31KT 11/02 A3017 RMK A01 T01050016  RH  055%=      5-min Rain = 0
KDVS 051525Z 35025G34KT 11/02 A3017 RMK A01 T01080018  RH  055%=      5-min Rain = 0
KDVS 051530Z 35027G38KT 11/02 A3017 RMK A01 T01080019  RH  055%=      5-min Rain = 0
KDVS 051535Z 35028G36KT 11/02 A3017 RMK A01 T01080018  RH  055%=      5-min Rain = 0
KDVS 051540Z 35029G36KT 11/02 A3017 RMK A01 T01080019  RH  055%=      5-min Rain = 0
KDVS 051545Z 35030G44KT 11/02 A3017 RMK A01 T01100019  RH  054%=      5-min Rain = 0
KDVS 051550Z 35026G36KT 11/02 A3017 RMK A01 T01130020  RH  054%=      5-min Rain = 0
KDVS 051555Z 35028G38KT 11/02 A3018 RMK A01 T01140021  RH  053%=      5-min Rain = 0
KDVS 051600Z 36030G40KT 11/02 A3018 RMK A01 T01120020  RH  054%=      5-min Rain = 0
KDVS 051605Z 35030G38KT 11/02 A3018 RMK A01 T01140021  RH  054%=      5-min Rain = 0
KDVS 051610Z 36029G37KT 12/02 A3018 RMK A01 T01160021  RH  053%=      5-min Rain = 0
KDVS 051615Z 35029G37KT 12/02 A3018 RMK A01 T01170022  RH  053%=      5-min Rain = 0
KDVS 051620Z 00027G36KT 12/02 A3018 RMK A01 T01180023  RH  053%=      5-min Rain = 0
KDVS 051625Z 36031G38KT 12/02 A3018 RMK A01 T01200022  RH  052%=      5-min Rain = 0
KDVS 051630Z 00029G38KT 12/02 A3018 RMK A01 T01210023  RH  052%=      5-min Rain = 0
KDVS 051635Z 36029G38KT 12/02 A3018 RMK A01 T01230024  RH  052%=      5-min Rain = 0
KDVS 051640Z 36027G38KT 12/03 A3019 RMK A01 T01230026  RH  052%=      5-min Rain = 0
KDVS 051645Z 00027G38KT 12/03 A3019 RMK A01 T01240027  RH  052%=      5-min Rain = 0
KDVS 051650Z 00027G34KT 13/03 A3019 RMK A01 T01250028  RH  052%=      5-min Rain = 0
KDVS 051655Z 36028G34KT 12/03 A3019 RMK A01 T01230028  RH  053%=      5-min Rain = 0
KDVS 051700Z 00026G35KT 12/03 A302 RMK A01 T01200029  RH  055%=      5-min Rain = 0
KDVS 051705Z 36026G37KT 13/03 A302 RMK A01 T01280031  RH  053%=      5-min Rain = 0
KDVS 051710Z 36027G35KT 12/03 A302 RMK A01 T01240029  RH  053%=      5-min Rain = 0
KDVS 051715Z 00026G34KT 12/03 A302 RMK A01 T01220030  RH  054%=      5-min Rain = 0
KDVS 051720Z 01027G34KT 12/03 A302 RMK A01 T01190030  RH  055%=      5-min Rain = 0
KDVS 051725Z 01027G36KT 12/03 A3021 RMK A01 T01230032  RH  055%=      5-min Rain = 0
KDVS 051730Z 00025G33KT 12/03 A3021 RMK A01 T01210032  RH  055%=      5-min Rain = 0
KDVS 051735Z 00023G30KT 12/03 A3021 RMK A01 T01230032  RH  055%=      5-min Rain = 0
KDVS 051740Z 01027G32KT 13/03 A3021 RMK A01 T01260033  RH  054%=      5-min Rain = 0
KDVS 051745Z 01026G34KT 13/03 A3022 RMK A01 T01250033  RH  055%=      5-min Rain = 0
KDVS 051750Z 01026G35KT 12/03 A3022 RMK A01 T01220033  RH  056%=      5-min Rain = 0
KDVS 051755Z 01024G33KT 12/03 A3022 RMK A01 T01170033  RH  058%=      5-min Rain = 0
KDVS 051800Z 01026G33KT 11/03 A3023 RMK A01 T01110034  RH  060%=      5-min Rain = 0
KDVS 051805Z 00027G32KT 11/03 A3023 RMK A01 T01060034  RH  062%=      5-min Rain = 0
KDVS 051810Z 01024G33KT 11/03 A3023 RMK A01 T01050034  RH  063%=      5-min Rain = 0
KDVS 051815Z 01024G34KT 12/04 A3022 RMK A01 T01160038  RH  060%=      5-min Rain = 0
KDVS 051820Z 01024G33KT 12/04 A3022 RMK A01 T01170035  RH  058%=      5-min Rain = 0
KDVS 051825Z 01025G32KT 12/04 A3022 RMK A01 T01170035  RH  058%=      5-min Rain = 0
KDVS 051830Z 01025G32KT 12/04 A3022 RMK A01 T01200036  RH  057%=      5-min Rain = 0
KDVS 051835Z 02025G33KT 13/04 A3022 RMK A01 T01290036  RH  054%=      5-min Rain = 0
KDVS 051840Z 01024G30KT 13/04 A3023 RMK A01 T01270036  RH  055%=      5-min Rain = 0
KDVS 051845Z 01022G29KT 13/04 A3023 RMK A01 T01310037  RH  054%=      5-min Rain = 0
KDVS 051850Z 01023G29KT 13/03 A3023 RMK A01 T01260033  RH  054%=      5-min Rain = 0
KDVS 051855Z 00022G28KT 12/03 A3023 RMK A01 T01240032  RH  054%=      5-min Rain = 0
KDVS 051900Z 00021G27KT 12/03 A3023 RMK A01 T01240032  RH  054%=      5-min Rain = 0
KDVS 051905Z 02022G28KT 12/03 A3023 RMK A01 T01210030  RH  055%=      5-min Rain = 0
KDVS 051910Z 00024G29KT 12/03 A3023 RMK A01 T01210031  RH  055%=      5-min Rain = 0
KDVS 051915Z 01021G28KT 12/03 A3024 RMK A01 T01210032  RH  055%=      5-min Rain = 0
KDVS 051920Z 00019G27KT 12/03 A3024 RMK A01 T01220030  RH  054%=      5-min Rain = 0
KDVS 051925Z 00019G25KT 12/03 A3024 RMK A01 T01240030  RH  054%=      5-min Rain = 0
KDVS 051930Z 36020G29KT 12/03 A3023 RMK A01 T01220029  RH  054%=      5-min Rain = 0
KDVS 051935Z 36023G28KT 12/03 A3023 RMK A01 T01200027  RH  054%=      5-min Rain = 0
KDVS 051940Z 36019G25KT 12/03 A3023 RMK A01 T01230028  RH  053%=      5-min Rain = 0
KDVS 051945Z 35019G26KT 13/03 A3023 RMK A01 T01250028  RH  053%=      5-min Rain = 0
KDVS 051950Z 35020G26KT 13/03 A3023 RMK A01 T01250029  RH  053%=      5-min Rain = 0
KDVS 051955Z 00020G28KT 12/03 A3023 RMK A01 T01220029  RH  054%=      5-min Rain = 0
KDVS 052000Z 36019G26KT 12/03 A3023 RMK A01 T01240029  RH  053%=      5-min Rain = 0
KDVS 052005Z 01020G27KT 12/03 A3022 RMK A01 T01230028  RH  053%=      5-min Rain = 0
KDVS 052010Z 01020G27KT 12/03 A3022 RMK A01 T01230029  RH  054%=      5-min Rain = 0
KDVS 052015Z 02020G29KT 13/03 A3022 RMK A01 T01270029  RH  052%=      5-min Rain = 0
KDVS 052020Z 01022G29KT 13/03 A3022 RMK A01 T01260027  RH  051%=      5-min Rain = 0
KDVS 052025Z 01022G29KT 13/03 A3022 RMK A01 T01260028  RH  052%=      5-min Rain = 0
KDVS 052030Z 00022G28KT 13/03 A3022 RMK A01 T01270030  RH  052%=      5-min Rain = 0
KDVS 052035Z 00021G27KT 13/03 A3022 RMK A01 T01270031  RH  053%=      5-min Rain = 0
KDVS 052040Z 01019G25KT 13/03 A3022 RMK A01 T01270032  RH  053%=      5-min Rain = 0
KDVS 052045Z 01021G28KT 13/03 A3022 RMK A01 T01320030  RH  051%=      5-min Rain = 0
KDVS 052050Z 01019G26KT 13/03 A3022 RMK A01 T01300027  RH  050%=      5-min Rain = 0
KDVS 052055Z 01017G24KT 13/03 A3022 RMK A01 T01320031  RH  051%=      5-min Rain = 0
KDVS 052100Z 01019G27KT 14/03 A3022 RMK A01 T01380029  RH  049%=      5-min Rain = 0
KDVS 052105Z 01017G22KT 14/03 A3022 RMK A01 T01350028  RH  049%=      5-min Rain = 0
KDVS 052110Z 01019G25KT 13/03 A3022 RMK A01 T01320028  RH  050%=      5-min Rain = 0
KDVS 052115Z 01019G25KT 13/03 A3023 RMK A01 T01280028  RH  051%=      5-min Rain = 0
KDVS 052120Z 01018G23KT 13/03 A3023 RMK A01 T01280028  RH  051%=      5-min Rain = 0
KDVS 052125Z 02018G25KT 13/03 A3023 RMK A01 T01290025  RH  050%=      5-min Rain = 0
KDVS 052130Z 02020G29KT 13/03 A3023 RMK A01 T01330025  RH  049%=      5-min Rain = 0
KDVS 052135Z 01019G25KT 13/02 A3023 RMK A01 T01320024  RH  049%=      5-min Rain = 0
KDVS 052140Z 00019KT 13/03 A3024 RMK A01 T01260029  RH  052%=      5-min Rain = 0
KDVS 052145Z 01017G23KT 13/03 A3024 RMK A01 T01310027  RH  050%=      5-min Rain = 0
KDVS 052150Z 00019G24KT 13/03 A3024 RMK A01 T01270028  RH  052%=      5-min Rain = 0
KDVS 052155Z 01020G26KT 13/03 A3024 RMK A01 T01250025  RH  051%=      5-min Rain = 0
KDVS 052200Z 01018G23KT 13/02 A3024 RMK A01 T01280020  RH  048%=      5-min Rain = 0
KDVS 052205Z 01017G24KT 13/02 A3024 RMK A01 T01290021  RH  048%=      5-min Rain = 0
KDVS 052210Z 02018G23KT 13/02 A3024 RMK A01 T01290020  RH  048%=      5-min Rain = 0
KDVS 052215Z 01021KT 13/02 A3025 RMK A01 T01290022  RH  049%=      5-min Rain = 0
KDVS 052220Z 02017G23KT 13/02 A3025 RMK A01 T01270022  RH  050%=      5-min Rain = 0
KDVS 052225Z 01019G25KT 13/02 A3025 RMK A01 T01290018  RH  048%=      5-min Rain = 0
KDVS 052230Z 01019G24KT 13/02 A3025 RMK A01 T01250021  RH  050%=      5-min Rain = 0
KDVS 052235Z 01018G23KT 12/02 A3026 RMK A01 T01240023  RH  051%=      5-min Rain = 0
KDVS 052240Z 01020G25KT 12/02 A3026 RMK A01 T01220024  RH  052%=      5-min Rain = 0
KDVS 052245Z 02020G25KT 12/02 A3026 RMK A01 T01200024  RH  052%=      5-min Rain = 0
KDVS 052250Z 01018KT 12/03 A3026 RMK A01 T01200025  RH  053%=      5-min Rain = 0
KDVS 052255Z 01018G25KT 12/02 A3026 RMK A01 T01200024  RH  053%=      5-min Rain = 0
KDVS 052300Z 01018G24KT 12/02 A3026 RMK A01 T01180024  RH  054%=      5-min Rain = 0
KDVS 052305Z 01019G24KT 12/02 A3026 RMK A01 T01170023  RH  053%=      5-min Rain = 0
KDVS 052310Z 02020G25KT 12/02 A3027 RMK A01 T01160017  RH  051%=      5-min Rain = 0
KDVS 052315Z 02018KT 12/02 A3027 RMK A01 T01150019  RH  052%=      5-min Rain = 0
KDVS 052320Z 02017G22KT 12/02 A3027 RMK A01 T01150019  RH  053%=      5-min Rain = 0
KDVS 052325Z 03015KT 11/02 A3027 RMK A01 T01140019  RH  053%=      5-min Rain = 0
KDVS 052330Z 02017G22KT 11/02 A3027 RMK A01 T01140020  RH  053%=      5-min Rain = 0
KDVS 052335Z 03016G21KT 11/02 A3027 RMK A01 T01140021  RH  054%=      5-min Rain = 0
KDVS 052340Z 02017G22KT 11/02 A3027 RMK A01 T01130022  RH  054%=      5-min Rain = 0
KDVS 052345Z 03016KT 11/02 A3027 RMK A01 T01120022  RH  055%=      5-min Rain = 0
KDVS 052350Z 03017KT 11/02 A3028 RMK A01 T01120023  RH  055%=      5-min Rain = 0
KDVS 052355Z 03015G22KT 11/02 A3028 RMK A01 T01110023  RH  055%=      5-min Rain = 0
KDVS 060000Z 03015G20KT 11/02 A3028 RMK A01 T01110024  RH  056%=      5-min Rain = 0
KDVS 060005Z 03015KT 11/03 A3028 RMK A01 T01100025  RH  057%=      5-min Rain = 0
KDVS 060010Z 03013KT 11/03 A3028 RMK A01 T01100025  RH  057%=      5-min Rain = 0
KDVS 060015Z 03013KT 11/03 A3029 RMK A01 T01100026  RH  057%=      5-min Rain = 0
KDVS 060020Z 02012KT 11/03 A3029 RMK A01 T01090026  RH  058%=      5-min Rain = 0
KDVS 060025Z 02013KT 11/03 A3029 RMK A01 T01090026  RH  058%=      5-min Rain = 0
KDVS 060030Z 02012KT 11/03 A3029 RMK A01 T01080026  RH  058%=      5-min Rain = 0
KDVS 060035Z 03012KT 11/03 A3029 RMK A01 T01050026  RH  059%=      5-min Rain = 0
KDVS 060040Z 02012KT 10/03 A3029 RMK A01 T01030025  RH  060%=      5-min Rain = 0
KDVS 060045Z 02012KT 10/03 A3029 RMK A01 T01010025  RH  060%=      5-min Rain = 0
KDVS 060050Z 03010KT 10/02 A3029 RMK A01 T00980024  RH  061%=      5-min Rain = 0
KDVS 060055Z 03009KT 10/02 A3029 RMK A01 T00960024  RH  062%=      5-min Rain = 0
KDVS 060100Z 02009KT 09/02 A3029 RMK A01 T00930024  RH  063%=      5-min Rain = 0
KDVS 060105Z 02007KT 09/02 A3029 RMK A01 T00900023  RH  064%=      5-min Rain = 0
KDVS 060110Z 02006KT 09/02 A3029 RMK A01 T00870022  RH  064%=      5-min Rain = 0
KDVS 060115Z 02006KT 08/02 A3029 RMK A01 T00840020  RH  065%=      5-min Rain = 0
KDVS 060120Z 01006KT 08/02 A3029 RMK A01 T00800019  RH  066%=      5-min Rain = 0
KDVS 060125Z 01007KT 08/02 A3029 RMK A01 T00760017  RH  067%=      5-min Rain = 0
KDVS 060130Z 01007KT 07/02 A3029 RMK A01 T00720016  RH  068%=      5-min Rain = 0
KDVS 060135Z 00006KT 07/02 A303 RMK A01 T00720017  RH  069%=      5-min Rain = 0
KDVS 060140Z 35005KT 07/02 A303 RMK A01 T00720016  RH  069%=      5-min Rain = 0
KDVS 060145Z 34005KT 07/01 A303 RMK A01 T00670013  RH  069%=      5-min Rain = 0
KDVS 060150Z 34005KT 06/01 A303 RMK A01 T00640012  RH  070%=      5-min Rain = 0
KDVS 060155Z 34005KT 07/01 A303 RMK A01 T00670014  RH  070%=      5-min Rain = 0
KDVS 060200Z 34005KT 06/01 A303 RMK A01 T00640012  RH  070%=      5-min Rain = 0
KDVS 060205Z 34005KT 06/01 A3031 RMK A01 T00640013  RH  071%=      5-min Rain = 0
KDVS 060210Z 34005KT 06/01 A3031 RMK A01 T00620011  RH  071%=      5-min Rain = 0
KDVS 060215Z 34005KT 06/01 A3031 RMK A01 T00590009  RH  072%=      5-min Rain = 0
KDVS 060220Z 34005KT 06/01 A3031 RMK A01 T00570009  RH  072%=      5-min Rain = 0
KDVS 060225Z 34006KT 06/01 A3031 RMK A01 T00570010  RH  073%=      5-min Rain = 0
KDVS 060230Z 34006KT 06/01 A3031 RMK A01 T00580011  RH  073%=      5-min Rain = 0
KDVS 060235Z 35006KT 06/01 A3031 RMK A01 T00590011  RH  072%=      5-min Rain = 0
KDVS 060240Z 35006KT 06/01 A3031 RMK A01 T00590012  RH  073%=      5-min Rain = 0
KDVS 060245Z 35006KT 06/01 A3032 RMK A01 T00590012  RH  073%=      5-min Rain = 0
KDVS 060250Z 35006KT 06/01 A3032 RMK A01 T00580012  RH  073%=      5-min Rain = 0
KDVS 060255Z 35006KT 06/01 A3032 RMK A01 T00570012  RH  074%=      5-min Rain = 0
KDVS 060300Z 35006KT 06/01 A3032 RMK A01 T00570012  RH  074%=      5-min Rain = 0
KDVS 060305Z 34006KT 05/01 A3032 RMK A01 T00540009  RH  074%=      5-min Rain = 0
KDVS 060310Z 34006KT 05/01 A3032 RMK A01 T00510008  RH  075%=      5-min Rain = 0
KDVS 060315Z 34006KT 05/01 A3033 RMK A01 T00510009  RH  075%=      5-min Rain = 0
KDVS 060320Z 34006KT 05/01 A3033 RMK A01 T00530011  RH  075%=      5-min Rain = 0
KDVS 060325Z 35007KT 05/01 A3033 RMK A01 T00540010  RH  075%=      5-min Rain = 0
KDVS 060330Z 35007KT 05/01 A3033 RMK A01 T00540012  RH  075%=      5-min Rain = 0
KDVS 060335Z 34007KT 06/01 A3033 RMK A01 T00550012  RH  075%=      5-min Rain = 0
KDVS 060340Z 34007KT 05/01 A3033 RMK A01 T00530010  RH  075%=      5-min Rain = 0
KDVS 060345Z 33007KT 05/01 A3033 RMK A01 T00510009  RH  075%=      5-min Rain = 0
KDVS 060350Z 33007KT 05/01 A3033 RMK A01 T00500009  RH  076%=      5-min Rain = 0
KDVS 060355Z 33008KT 05/01 A3033 RMK A01 T00500010  RH  076%=      5-min Rain = 0
KDVS 060400Z 33007KT 05/01 A3034 RMK A01 T00490009  RH  076%=      5-min Rain = 0
KDVS 060405Z 32006KT 05/01 A3034 RMK A01 T00470009  RH  077%=      5-min Rain = 0
KDVS 060410Z 32006KT 05/01 A3033 RMK A01 T00470010  RH  078%=      5-min Rain = 0
KDVS 060415Z 32006KT 05/01 A3033 RMK A01 T00470010  RH  078%=      5-min Rain = 0
KDVS 060420Z 32006KT 05/01 A3033 RMK A01 T00470009  RH  078%=      5-min Rain = 0
KDVS 060425Z 33006KT 04/01 A3033 RMK A01 T00440007  RH  078%=      5-min Rain = 0
KDVS 060430Z 33007KT 04/01 A3033 RMK A01 T00400005  RH  079%=      5-min Rain = 0
KDVS 060435Z 33007KT 04/01 A3033 RMK A01 T00400007  RH  080%=      5-min Rain = 0
KDVS 060440Z 34007KT 05/01 A3033 RMK A01 T00450010  RH  079%=      5-min Rain = 0
KDVS 060445Z 34007KT 05/01 A3033 RMK A01 T00470010  RH  078%=      5-min Rain = 0
KDVS 060450Z 34007KT 05/01 A3033 RMK A01 T00480009  RH  077%=      5-min Rain = 0
KDVS 060455Z 35006KT 05/01 A3033 RMK A01 T00460006  RH  077%=      5-min Rain = 0
KDVS 060500Z 34006KT 04/01 A3033 RMK A01 T00440006  RH  077%=      5-min Rain = 0
KDVS 060505Z 34007KT 04/01 A3034 RMK A01 T00430005  RH  077%=      5-min Rain = 0
KDVS 060510Z 34006KT 04/00 A3034 RMK A01 T00410003  RH  077%=      5-min Rain = 0
KDVS 060515Z 34007KT 04/00 A3034 RMK A01 T00390001  RH  077%=      5-min Rain = 0
KDVS 060520Z 34007KT 04/00 A3033 RMK A01 T003500-0  RH  079%=      5-min Rain = 0
KDVS 060525Z 34007KT 04/M00 A3033 RMK A01 T00351001  RH  079%=      5-min Rain = 0
KDVS 060530Z 34006KT 03/M00 A3033 RMK A01 T00341001  RH  079%=      5-min Rain = 0
KDVS 060535Z 35006KT 03/M00 A3033 RMK A01 T00321002  RH  079%=      5-min Rain = 0
KDVS 060540Z 35006KT 03/M00 A3033 RMK A01 T00301003  RH  080%=      5-min Rain = 0
KDVS 060545Z 35006KT 03/M00 A3033 RMK A01 T00281004  RH  080%=      5-min Rain = 0
KDVS 060550Z 36006KT 03/M01 A3033 RMK A01 T00271005  RH  080%=      5-min Rain = 0
KDVS 060555Z 00006KT 02/M01 A3033 RMK A01 T00241007  RH  080%=      5-min Rain = 0

Page generated in 0.0085 seconds.